Terminal Aerodrome Forecast
Issued by NWS

Home | Current Version | Previous Version | Text Only | Print | Product List | Glossary On
Versions: 1 2 3 4 5 6 7 8 9 10 11 12 13 14 15 16 17 18
000
FTUS43 KJKL 021022 AAB
TAFSME
TAF AMD
KSME 021022Z 0210/0306 00000KT 4SM BR SCT250
      TEMPO 0212/0213 2SM BR
     FM021300 VRB06KT P6SM SCT040
     FM030000 00000KT P6SM SCT250=

USA.gov is the U.S. government's official web portal to all federal, state and local government web resources and services.